createdAt,value
2022-10-07T00:01:57.372Z,57.27
2022-10-07T00:05:00.195Z,57.17
2022-10-07T00:08:02.957Z,57.21
2022-10-07T00:11:08.026Z,57.21
2022-10-07T00:14:11.521Z,57.42
2022-10-07T00:17:15.726Z,57.30
2022-10-07T00:20:18.495Z,57.36
2022-10-07T00:23:21.345Z,57.33
2022-10-07T00:26:26.533Z,57.33
2022-10-07T00:29:30.211Z,57.39
2022-10-07T00:32:34.398Z,57.20
2022-10-07T00:35:37.220Z,57.29
2022-10-07T00:38:41.979Z,57.20
2022-10-07T00:41:50.128Z,57.18
2022-10-07T00:44:52.990Z,57.15
2022-10-07T00:47:57.308Z,57.13
2022-10-07T00:51:02.750Z,57.24
2022-10-07T00:54:10.467Z,57.17
2022-10-07T00:57:13.378Z,57.20
2022-10-07T01:00:16.728Z,57.31
2022-10-07T01:03:21.280Z,57.23
2022-10-07T01:06:24.091Z,57.19
2022-10-07T01:09:27.341Z,57.08
2022-10-07T01:12:38.224Z,57.26
2022-10-07T01:15:47.080Z,57.15
2022-10-07T01:18:55.104Z,57.11
2022-10-07T01:22:10.222Z,57.08
2022-10-07T01:25:36.460Z,57.17
2022-10-07T01:28:46.739Z,57.03
2022-10-07T01:31:54.365Z,57.11
2022-10-07T01:34:58.712Z,56.99
2022-10-07T01:38:05.613Z,56.98
2022-10-07T01:41:12.316Z,56.95
2022-10-07T01:44:18.543Z,56.98
2022-10-07T01:47:21.473Z,57.08
2022-10-07T01:50:28.453Z,57.05
2022-10-07T01:53:45.716Z,56.95
2022-10-07T01:57:07.204Z,56.97
2022-10-07T02:00:13.324Z,57.04
2022-10-07T02:03:56.929Z,56.96
2022-10-07T02:07:09.686Z,56.96
2022-10-07T02:10:22.493Z,56.88
2022-10-07T02:13:30.348Z,56.83
2022-10-07T02:16:38.513Z,56.79
2022-10-07T02:19:45.436Z,56.98
2022-10-07T02:22:51.485Z,56.90
2022-10-07T02:25:57.017Z,56.87
2022-10-07T02:29:04.448Z,56.90
2022-10-07T02:32:13.283Z,56.79
2022-10-07T02:35:24.973Z,56.87
2022-10-07T02:38:27.962Z,56.77
2022-10-07T02:41:36.200Z,56.83
2022-10-07T02:44:51.977Z,56.95
2022-10-07T02:48:05.518Z,56.92
2022-10-07T02:51:12.543Z,56.83
2022-10-07T02:54:19.609Z,56.80
2022-10-07T02:57:24.680Z,56.84
2022-10-07T03:00:30.436Z,56.66
2022-10-07T03:03:34.759Z,56.67
2022-10-07T03:06:42.106Z,56.86
2022-10-07T03:09:45.083Z,56.71
2022-10-07T03:12:49.109Z,56.79
2022-10-07T03:15:53.180Z,56.67
2022-10-07T03:19:01.702Z,56.62
2022-10-07T03:22:27.381Z,56.71
2022-10-07T03:25:30.296Z,56.58
2022-10-07T03:28:37.532Z,56.59
2022-10-07T03:31:42.843Z,56.59
2022-10-07T03:34:47.172Z,56.53
2022-10-07T03:37:49.971Z,56.48
2022-10-07T03:40:54.222Z,56.46
2022-10-07T03:43:59.280Z,56.48
2022-10-07T03:47:06.669Z,56.49
2022-10-07T03:50:14.236Z,56.43
2022-10-07T03:53:17.089Z,56.60
2022-10-07T03:56:20.028Z,56.40
2022-10-07T03:59:22.898Z,56.40
2022-10-07T04:02:26.297Z,56.54
2022-10-07T04:05:34.199Z,56.44
2022-10-07T04:08:37.481Z,56.47
2022-10-07T04:11:42.166Z,56.50
2022-10-07T04:14:46.042Z,56.39
2022-10-07T04:17:50.024Z,56.41
2022-10-07T04:21:00.041Z,56.48
2022-10-07T04:24:03.194Z,56.59
2022-10-07T04:27:05.998Z,56.36
2022-10-07T04:30:10.035Z,56.34
2022-10-07T04:33:13.411Z,56.42
2022-10-07T04:36:17.892Z,56.35
2022-10-07T04:39:56.004Z,56.47
2022-10-07T04:43:09.863Z,56.44
2022-10-07T04:46:14.256Z,56.27
2022-10-07T04:49:23.673Z,56.35
2022-10-07T04:52:27.961Z,56.37
2022-10-07T04:55:31.084Z,56.40
2022-10-07T04:58:34.387Z,56.39
2022-10-07T05:01:37.378Z,56.35
2022-10-07T05:04:40.418Z,56.31
2022-10-07T05:07:50.719Z,56.40
2022-10-07T05:10:56.255Z,56.31
2022-10-07T05:14:01.924Z,56.29
2022-10-07T05:17:06.339Z,56.23
2022-10-07T05:20:12.370Z,56.21
2022-10-07T05:23:18.987Z,56.28
2022-10-07T05:26:22.677Z,56.29
2022-10-07T05:29:31.451Z,56.20
2022-10-07T05:32:34.337Z,56.21
2022-10-07T05:35:37.498Z,56.20
2022-10-07T05:38:41.897Z,56.28
2022-10-07T05:41:46.138Z,56.25
2022-10-07T05:44:52.250Z,56.27
2022-10-07T05:47:57.473Z,56.28
2022-10-07T05:51:00.795Z,56.19
2022-10-07T05:54:08.380Z,56.25
2022-10-07T05:57:15.337Z,56.15
2022-10-07T06:00:18.767Z,56.19
2022-10-07T06:03:26.385Z,56.20
2022-10-07T06:06:31.722Z,56.18
2022-10-07T06:09:57.281Z,56.24
2022-10-07T06:13:08.887Z,56.12
2022-10-07T06:16:14.222Z,56.17
2022-10-07T06:19:22.583Z,56.21
2022-10-07T06:22:27.721Z,56.16
2022-10-07T06:25:32.161Z,56.25
2022-10-07T06:28:37.139Z,56.12
2022-10-07T06:31:40.662Z,56.10
2022-10-07T06:34:45.073Z,56.18
2022-10-07T06:37:48.938Z,56.13
2022-10-07T06:41:00.153Z,56.16
2022-10-07T06:44:05.044Z,56.12
2022-10-07T06:47:11.599Z,56.21
2022-10-07T06:50:16.727Z,56.16
2022-10-07T06:53:19.774Z,56.03
2022-10-07T06:56:24.568Z,56.10
2022-10-07T06:59:27.710Z,56.17
2022-10-07T07:02:39.719Z,56.19
2022-10-07T07:05:45.749Z,56.12
2022-10-07T07:08:58.476Z,56.27
2022-10-07T07:12:03.321Z,56.18
2022-10-07T07:15:11.218Z,56.51
2022-10-07T07:18:16.987Z,56.27
2022-10-07T07:21:20.022Z,56.17
2022-10-07T07:24:23.077Z,56.18
2022-10-07T07:27:27.512Z,56.07
2022-10-07T07:30:31.234Z,56.32
2022-10-07T07:33:38.294Z,56.34
2022-10-07T07:36:45.428Z,56.42
2022-10-07T07:39:49.865Z,56.27
2022-10-07T07:42:55.979Z,56.40
2022-10-07T07:45:59.378Z,56.42
2022-10-07T07:49:02.810Z,56.47
2022-10-07T07:52:06.537Z,56.59
2022-10-07T07:55:15.846Z,56.62
2022-10-07T07:58:21.108Z,56.63
2022-10-07T08:01:24.186Z,56.10
2022-10-07T08:04:27.596Z,55.04
2022-10-07T08:07:33.000Z,53.94
2022-10-07T08:10:37.099Z,53.31
2022-10-07T08:13:42.280Z,52.61
2022-10-07T08:16:48.606Z,52.83
2022-10-07T08:19:51.535Z,52.93
2022-10-07T08:22:58.930Z,52.95
2022-10-07T08:26:04.494Z,52.87
2022-10-07T08:29:09.233Z,53.07
2022-10-07T08:32:12.353Z,53.58
2022-10-07T08:35:15.323Z,53.63
2022-10-07T08:38:18.232Z,53.60
2022-10-07T08:41:36.332Z,53.67
2022-10-07T08:44:42.703Z,53.86
2022-10-07T08:47:47.339Z,53.84
2022-10-07T08:50:58.177Z,53.93
2022-10-07T08:54:01.454Z,53.69
2022-10-07T08:57:09.909Z,53.72
2022-10-07T09:00:17.711Z,53.86
2022-10-07T09:03:35.801Z,54.08
2022-10-07T09:06:42.379Z,54.01
2022-10-07T09:09:54.839Z,54.20
2022-10-07T09:13:01.930Z,54.26
2022-10-07T09:16:11.976Z,54.50
2022-10-07T09:19:22.535Z,54.55
2022-10-07T09:22:33.064Z,54.69
2022-10-07T09:25:36.179Z,54.68
2022-10-07T09:28:39.376Z,54.66
2022-10-07T09:31:43.947Z,54.80
2022-10-07T09:34:47.498Z,54.75
2022-10-07T09:37:59.329Z,54.88
2022-10-07T09:41:17.331Z,54.88
2022-10-07T09:44:27.042Z,54.96
2022-10-07T09:47:37.281Z,55.00
2022-10-07T09:50:41.508Z,55.03
2022-10-07T09:53:58.671Z,55.17
2022-10-07T09:57:04.577Z,55.22
2022-10-07T10:00:25.959Z,55.39
2022-10-07T10:03:32.233Z,55.24
2022-10-07T10:06:35.421Z,55.35
2022-10-07T10:09:38.294Z,55.40
2022-10-07T10:12:47.507Z,55.54
2022-10-07T10:15:50.558Z,55.43
2022-10-07T10:18:58.802Z,55.55
2022-10-07T10:22:01.717Z,55.56
2022-10-07T10:25:22.512Z,55.43
2022-10-07T10:28:38.656Z,55.52
2022-10-07T10:32:02.721Z,55.52
2022-10-07T10:35:14.789Z,55.73
2022-10-07T10:38:32.404Z,55.70
2022-10-07T10:41:44.195Z,55.79
2022-10-07T10:44:56.010Z,55.64
2022-10-07T10:48:16.397Z,55.75
2022-10-07T10:51:34.285Z,55.80
2022-10-07T10:54:47.911Z,55.72
2022-10-07T10:58:02.704Z,55.74
2022-10-07T11:01:14.769Z,55.85
2022-10-07T11:04:29.145Z,55.85
2022-10-07T11:07:37.942Z,55.76
2022-10-07T11:10:45.574Z,55.74
2022-10-07T11:13:54.380Z,55.81
2022-10-07T11:17:01.855Z,55.80
2022-10-07T11:20:16.433Z,55.86
2022-10-07T11:23:24.586Z,55.93
2022-10-07T11:26:34.903Z,55.88
2022-10-07T11:29:46.584Z,55.89
2022-10-07T11:32:55.946Z,55.92
2022-10-07T11:36:05.553Z,55.85
2022-10-07T11:39:10.755Z,55.88
2022-10-07T11:42:19.668Z,55.87
2022-10-07T11:45:27.154Z,55.87
2022-10-07T11:48:37.624Z,55.85
2022-10-07T11:51:50.139Z,55.93
2022-10-07T11:55:00.577Z,55.90
2022-10-07T11:58:06.220Z,55.86
2022-10-07T12:01:53.366Z,55.85
2022-10-07T12:04:57.433Z,55.88
2022-10-07T12:08:02.943Z,56.01
2022-10-07T12:11:44.381Z,56.03
2022-10-07T12:15:00.733Z,55.95
2022-10-07T12:18:28.389Z,55.97
2022-10-07T12:22:18.836Z,56.04
2022-10-07T12:25:32.188Z,55.84
2022-10-07T12:28:46.056Z,56.00
2022-10-07T12:31:50.534Z,55.88
2022-10-07T12:34:53.408Z,56.02
2022-10-07T12:38:06.140Z,55.92
2022-10-07T12:41:20.860Z,56.02
2022-10-07T12:44:27.259Z,56.01
2022-10-07T12:47:32.454Z,56.01
2022-10-07T12:50:35.348Z,56.04
2022-10-07T12:53:42.698Z,55.90
2022-10-07T12:56:45.936Z,55.92
2022-10-07T13:00:00.103Z,55.83
2022-10-07T13:03:42.565Z,55.95
2022-10-07T13:07:25.700Z,55.95
2022-10-07T13:11:10.843Z,55.90
2022-10-07T13:14:20.687Z,55.95
2022-10-07T13:17:41.449Z,55.98
2022-10-07T13:21:03.437Z,56.04
2022-10-07T13:24:06.538Z,55.90
2022-10-07T13:27:09.843Z,55.95
2022-10-07T13:30:34.868Z,56.09
2022-10-07T13:33:37.749Z,56.09
2022-10-07T13:36:44.301Z,56.08
2022-10-07T13:39:47.147Z,56.03
2022-10-07T13:42:55.531Z,55.94
2022-10-07T13:46:00.071Z,55.99
2022-10-07T13:49:04.349Z,56.13
2022-10-07T13:52:20.468Z,55.99
2022-10-07T13:55:29.347Z,56.06
2022-10-07T13:58:33.236Z,56.07
2022-10-07T14:01:40.098Z,55.96
2022-10-07T14:04:56.204Z,56.14
2022-10-07T14:08:13.049Z,56.04
2022-10-07T14:11:22.283Z,56.17
2022-10-07T14:14:28.065Z,56.09
2022-10-07T14:17:40.999Z,56.04
2022-10-07T14:20:50.708Z,56.07
2022-10-07T14:23:54.895Z,56.18
2022-10-07T14:26:58.003Z,56.14
2022-10-07T14:30:01.360Z,56.14
2022-10-07T14:33:28.051Z,56.15
2022-10-07T14:36:31.164Z,56.10
2022-10-07T14:39:37.398Z,56.09
2022-10-07T14:42:40.171Z,56.14
2022-10-07T14:45:42.979Z,56.24
2022-10-07T14:48:46.581Z,56.13
2022-10-07T14:51:50.277Z,56.05
2022-10-07T14:54:56.035Z,56.10
2022-10-07T14:57:58.785Z,56.19
2022-10-07T15:01:01.611Z,56.11
2022-10-07T15:04:04.487Z,56.00
2022-10-07T15:07:07.392Z,56.10
2022-10-07T15:10:18.031Z,56.20
2022-10-07T15:13:20.902Z,56.14
2022-10-07T15:16:26.974Z,56.16
2022-10-07T15:19:30.394Z,56.22
2022-10-07T15:22:33.517Z,56.15
2022-10-07T15:25:42.481Z,56.17
2022-10-07T15:28:45.297Z,56.15
2022-10-07T15:31:48.118Z,56.28
2022-10-07T15:34:52.342Z,56.27
2022-10-07T15:37:55.302Z,56.27
2022-10-07T15:41:01.515Z,56.29
2022-10-07T15:44:06.652Z,56.14
2022-10-07T15:47:09.653Z,56.20
2022-10-07T15:50:12.427Z,56.19
2022-10-07T15:53:16.437Z,56.25
2022-10-07T15:56:20.832Z,56.28
2022-10-07T15:59:23.677Z,56.15
2022-10-07T16:02:26.452Z,56.24
2022-10-07T16:05:31.315Z,56.21
2022-10-07T16:08:34.171Z,56.21
2022-10-07T16:11:38.339Z,56.18
2022-10-07T16:14:41.099Z,56.16
2022-10-07T16:17:44.172Z,56.21
2022-10-07T16:20:46.972Z,56.25
2022-10-07T16:23:51.389Z,56.35
2022-10-07T16:26:57.206Z,56.24
2022-10-07T16:30:17.500Z,56.14
2022-10-07T16:33:20.276Z,56.24
2022-10-07T16:36:25.473Z,55.94
2022-10-07T16:39:28.461Z,56.31
2022-10-07T16:42:32.736Z,56.36
2022-10-07T16:45:35.480Z,56.28
2022-10-07T16:48:39.883Z,56.27
2022-10-07T16:51:43.677Z,56.29
2022-10-07T16:54:46.494Z,56.32
2022-10-07T16:57:51.257Z,56.26
2022-10-07T17:01:01.413Z,56.27
2022-10-07T17:04:04.318Z,56.28
2022-10-07T17:07:07.161Z,56.34
2022-10-07T17:10:10.776Z,56.18
2022-10-07T17:13:15.166Z,56.25
2022-10-07T17:16:18.526Z,56.19
2022-10-07T17:19:23.100Z,56.19
2022-10-07T17:22:26.021Z,56.20
2022-10-07T17:25:28.830Z,56.31
2022-10-07T17:28:33.091Z,56.35
2022-10-07T17:31:39.031Z,56.19
2022-10-07T17:34:45.333Z,56.24
2022-10-07T17:37:49.261Z,56.20
2022-10-07T17:40:52.273Z,56.21
2022-10-07T17:43:58.394Z,56.28
2022-10-07T17:47:03.828Z,56.25
2022-10-07T17:50:07.237Z,56.37
2022-10-07T17:53:10.047Z,56.29
2022-10-07T17:56:15.809Z,56.23
2022-10-07T17:59:20.020Z,56.25
2022-10-07T18:02:22.957Z,56.21
2022-10-07T18:05:26.394Z,56.17
2022-10-07T18:08:29.277Z,56.33
2022-10-07T18:11:50.513Z,56.23
2022-10-07T18:15:11.955Z,56.46
2022-10-07T18:18:15.593Z,56.28
2022-10-07T18:21:18.670Z,56.27
2022-10-07T18:24:21.457Z,56.37
2022-10-07T18:27:27.215Z,56.42
2022-10-07T18:30:31.352Z,56.39
2022-10-07T18:33:35.905Z,56.22
2022-10-07T18:36:38.731Z,56.18
2022-10-07T18:39:41.984Z,56.25
2022-10-07T18:42:44.764Z,56.31
2022-10-07T18:45:48.925Z,56.26
2022-10-07T18:48:52.091Z,56.31
2022-10-07T18:51:54.974Z,56.27
2022-10-07T18:54:57.786Z,56.25
2022-10-07T18:58:00.596Z,56.37
2022-10-07T19:01:08.469Z,56.23
2022-10-07T19:04:11.760Z,56.32
2022-10-07T19:07:14.600Z,56.29
2022-10-07T19:10:17.465Z,56.31
2022-10-07T19:13:42.911Z,56.32
2022-10-07T19:16:49.901Z,56.26
2022-10-07T19:19:53.018Z,56.25
2022-10-07T19:22:55.805Z,56.28
2022-10-07T19:26:00.144Z,56.45
2022-10-07T19:29:04.713Z,56.57
2022-10-07T19:32:09.170Z,56.39
2022-10-07T19:35:12.072Z,56.37
2022-10-07T19:38:15.080Z,56.46
2022-10-07T19:41:18.098Z,56.45
2022-10-07T19:44:22.241Z,56.42
2022-10-07T19:47:26.420Z,56.37
2022-10-07T19:50:29.182Z,56.33
2022-10-07T19:53:34.797Z,56.33
2022-10-07T19:56:38.400Z,56.46
2022-10-07T19:59:41.219Z,56.57
2022-10-07T20:02:45.454Z,56.58
2022-10-07T20:05:48.340Z,56.53
2022-10-07T20:08:51.133Z,56.48
2022-10-07T20:11:55.877Z,56.49
2022-10-07T20:14:58.700Z,56.54
2022-10-07T20:18:03.919Z,56.69
2022-10-07T20:21:11.208Z,56.76
2022-10-07T20:24:16.175Z,56.37
2022-10-07T20:27:19.961Z,56.84
2022-10-07T20:30:22.797Z,56.81
2022-10-07T20:33:27.012Z,56.76
2022-10-07T20:36:31.177Z,56.76
2022-10-07T20:39:53.537Z,56.83
2022-10-07T20:42:57.273Z,56.74
2022-10-07T20:46:00.301Z,56.79
2022-10-07T20:49:10.862Z,56.76
2022-10-07T20:52:17.178Z,56.79
2022-10-07T20:55:20.028Z,56.75
2022-10-07T20:58:22.792Z,56.85
2022-10-07T21:01:25.744Z,56.91
2022-10-07T21:04:30.036Z,56.83
2022-10-07T21:07:32.795Z,56.77
2022-10-07T21:10:35.626Z,56.78
2022-10-07T21:13:38.465Z,56.90
2022-10-07T21:16:41.376Z,56.86
2022-10-07T21:19:45.743Z,56.91
2022-10-07T21:22:49.701Z,56.81
2022-10-07T21:25:52.849Z,56.87
2022-10-07T21:28:55.705Z,56.79
2022-10-07T21:31:58.855Z,56.87
2022-10-07T21:35:03.338Z,56.98
2022-10-07T21:38:06.246Z,57.01
2022-10-07T21:41:13.659Z,56.99
2022-10-07T21:44:16.644Z,56.88
2022-10-07T21:47:19.490Z,57.01
2022-10-07T21:50:23.730Z,57.02
2022-10-07T21:53:27.125Z,57.02
2022-10-07T21:56:32.707Z,56.94
2022-10-07T21:59:35.539Z,56.83
2022-10-07T22:02:38.422Z,56.85
2022-10-07T22:05:42.976Z,56.81
2022-10-07T22:08:46.393Z,56.95
2022-10-07T22:11:50.333Z,57.02
2022-10-07T22:14:53.245Z,57.17
2022-10-07T22:17:56.547Z,57.15
2022-10-07T22:21:01.565Z,57.02
2022-10-07T22:24:07.050Z,57.04
2022-10-07T22:27:09.848Z,56.88
2022-10-07T22:30:13.713Z,56.85
2022-10-07T22:33:16.503Z,56.77
2022-10-07T22:36:20.760Z,56.64
2022-10-07T22:39:23.545Z,56.42
2022-10-07T22:42:26.574Z,56.51
2022-10-07T22:45:29.378Z,56.22
2022-10-07T22:48:34.305Z,56.26
2022-10-07T22:51:38.458Z,56.13
2022-10-07T22:54:41.298Z,55.89
2022-10-07T22:57:44.070Z,55.88
2022-10-07T23:00:47.038Z,55.91
2022-10-07T23:03:49.995Z,55.95
2022-10-07T23:06:54.199Z,56.09
2022-10-07T23:09:56.989Z,56.11
2022-10-07T23:13:02.337Z,56.25
2022-10-07T23:16:08.116Z,56.09
2022-10-07T23:19:11.125Z,56.09
2022-10-07T23:22:15.266Z,56.23
2022-10-07T23:25:18.146Z,56.14
2022-10-07T23:28:21.965Z,56.19
2022-10-07T23:31:27.423Z,56.18
2022-10-07T23:34:30.372Z,56.14
2022-10-07T23:37:35.238Z,56.21
2022-10-07T23:40:38.216Z,56.26
2022-10-07T23:43:41.276Z,56.19
2022-10-07T23:46:44.862Z,56.22
2022-10-07T23:49:47.817Z,56.12
2022-10-07T23:52:52.032Z,56.17
2022-10-07T23:55:54.941Z,56.16
2022-10-07T23:58:58.394Z,56.13
